sensor_id;sensor_type;location;lat;lon;timestamp;pressure;altitude;pressure_sealevel;temperature;humidity
59337;BME280;45115;52.002;4.686;2023-03-16T00:00:31;101825.56;;;4.96;74.82
59337;BME280;45115;52.002;4.686;2023-03-16T00:02:57;101822.75;;;4.97;75.42
59337;BME280;45115;52.002;4.686;2023-03-16T00:05:25;101826.97;;;5.03;74.71
59337;BME280;45115;52.002;4.686;2023-03-16T00:07:52;101825.94;;;5.05;74.44
59337;BME280;45115;52.002;4.686;2023-03-16T00:10:19;101816.03;;;5.04;74.71
59337;BME280;45115;52.002;4.686;2023-03-16T00:12:51;101821.47;;;5.04;74.89
59337;BME280;45115;52.002;4.686;2023-03-16T00:15:18;101813.06;;;5.09;74.90
59337;BME280;45115;52.002;4.686;2023-03-16T00:17:45;101806.56;;;5.11;75.22
59337;BME280;45115;52.002;4.686;2023-03-16T00:20:13;101806.34;;;5.16;75.29
59337;BME280;45115;52.002;4.686;2023-03-16T00:22:41;101813.22;;;5.21;74.47
59337;BME280;45115;52.002;4.686;2023-03-16T00:25:08;101803.63;;;5.16;74.80
59337;BME280;45115;52.002;4.686;2023-03-16T00:27:36;101798.09;;;5.17;74.60
59337;BME280;45115;52.002;4.686;2023-03-16T00:30:04;101800.09;;;5.29;74.28
59337;BME280;45115;52.002;4.686;2023-03-16T00:32:32;101810.59;;;5.20;74.81
59337;BME280;45115;52.002;4.686;2023-03-16T00:35:00;101803.84;;;5.27;74.08
59337;BME280;45115;52.002;4.686;2023-03-16T00:37:29;101805.53;;;5.29;75.10
59337;BME280;45115;52.002;4.686;2023-03-16T00:40:00;101803.34;;;5.20;75.53
59337;BME280;45115;52.002;4.686;2023-03-16T00:42:29;101791.34;;;5.24;74.87
59337;BME280;45115;52.002;4.686;2023-03-16T00:45:01;101786.00;;;5.23;75.70
59337;BME280;45115;52.002;4.686;2023-03-16T00:47:31;101781.97;;;5.30;75.57
59337;BME280;45115;52.002;4.686;2023-03-16T00:49:59;101775.75;;;5.28;76.18
59337;BME280;45115;52.002;4.686;2023-03-16T00:52:27;101774.78;;;5.29;75.94
59337;BME280;45115;52.002;4.686;2023-03-16T00:54:56;101767.31;;;5.32;76.39
59337;BME280;45115;52.002;4.686;2023-03-16T00:57:24;101777.16;;;5.35;76.48
59337;BME280;45115;52.002;4.686;2023-03-16T00:59:52;101765.41;;;5.34;76.57
59337;BME280;45115;52.002;4.686;2023-03-16T01:02:20;101766.19;;;5.36;76.15
59337;BME280;45115;52.002;4.686;2023-03-16T01:04:48;101758.28;;;5.32;76.71
59337;BME280;45115;52.002;4.686;2023-03-16T01:07:14;101757.59;;;5.28;77.16
59337;BME280;45115;52.002;4.686;2023-03-16T01:09:41;101753.66;;;5.34;76.86
59337;BME280;45115;52.002;4.686;2023-03-16T01:12:14;101750.84;;;5.35;77.49
59337;BME280;45115;52.002;4.686;2023-03-16T01:14:44;101746.09;;;5.39;76.87
59337;BME280;45115;52.002;4.686;2023-03-16T01:17:12;101745.41;;;5.35;76.97
59337;BME280;45115;52.002;4.686;2023-03-16T01:19:40;101738.22;;;5.34;77.37
59337;BME280;45115;52.002;4.686;2023-03-16T01:22:08;101738.56;;;5.44;77.01
59337;BME280;45115;52.002;4.686;2023-03-16T01:24:37;101744.78;;;5.46;77.38
59337;BME280;45115;52.002;4.686;2023-03-16T01:27:06;101743.03;;;5.45;77.27
59337;BME280;45115;52.002;4.686;2023-03-16T01:29:34;101742.44;;;5.40;78.12
59337;BME280;45115;52.002;4.686;2023-03-16T01:32:02;101718.63;;;5.29;78.55
59337;BME280;45115;52.002;4.686;2023-03-16T01:34:30;101728.41;;;5.32;79.00
59337;BME280;45115;52.002;4.686;2023-03-16T01:36:56;101725.78;;;5.30;79.74
59337;BME280;45115;52.002;4.686;2023-03-16T01:39:27;101728.16;;;5.36;79.70
59337;BME280;45115;52.002;4.686;2023-03-16T01:41:54;101718.19;;;5.37;79.38
59337;BME280;45115;52.002;4.686;2023-03-16T01:44:22;101719.81;;;5.39;79.41
59337;BME280;45115;52.002;4.686;2023-03-16T01:47:04;101706.22;;;5.39;79.40
59337;BME280;45115;52.002;4.686;2023-03-16T01:49:33;101707.13;;;5.40;79.49
59337;BME280;45115;52.002;4.686;2023-03-16T01:52:04;101697.19;;;5.39;79.31
59337;BME280;45115;52.002;4.686;2023-03-16T01:54:33;101701.31;;;5.46;78.98
59337;BME280;45115;52.002;4.686;2023-03-16T01:57:05;101687.13;;;5.41;78.68
59337;BME280;45115;52.002;4.686;2023-03-16T01:59:36;101689.56;;;5.45;79.10
59337;BME280;45115;52.002;4.686;2023-03-16T02:02:07;101697.44;;;5.50;78.54
59337;BME280;45115;52.002;4.686;2023-03-16T02:04:39;101694.47;;;5.54;78.84
59337;BME280;45115;52.002;4.686;2023-03-16T02:07:08;101687.94;;;5.57;77.98
59337;BME280;45115;52.002;4.686;2023-03-16T02:09:37;101684.00;;;5.62;78.08
59337;BME280;45115;52.002;4.686;2023-03-16T02:12:07;101686.91;;;5.59;78.24
59337;BME280;45115;52.002;4.686;2023-03-16T02:14:44;101685.72;;;5.63;78.53
59337;BME280;45115;52.002;4.686;2023-03-16T02:17:14;101676.72;;;5.63;78.11
59337;BME280;45115;52.002;4.686;2023-03-16T02:19:47;101680.22;;;5.65;78.48
59337;BME280;45115;52.002;4.686;2023-03-16T02:22:19;101675.16;;;5.59;79.47
59337;BME280;45115;52.002;4.686;2023-03-16T02:24:50;101663.50;;;5.57;79.47
59337;BME280;45115;52.002;4.686;2023-03-16T02:27:25;101670.06;;;5.53;79.37
59337;BME280;45115;52.002;4.686;2023-03-16T02:30:04;101670.88;;;5.55;80.23
59337;BME280;45115;52.002;4.686;2023-03-16T02:32:39;101660.53;;;5.46;80.30
59337;BME280;45115;52.002;4.686;2023-03-16T02:35:08;101662.81;;;5.53;80.30
59337;BME280;45115;52.002;4.686;2023-03-16T02:37:35;101660.97;;;5.54;80.73
59337;BME280;45115;52.002;4.686;2023-03-16T02:40:17;101651.44;;;5.47;80.96
59337;BME280;45115;52.002;4.686;2023-03-16T02:42:48;101651.25;;;5.50;80.96
59337;BME280;45115;52.002;4.686;2023-03-16T02:45:22;101648.53;;;5.50;80.94
59337;BME280;45115;52.002;4.686;2023-03-16T02:47:51;101645.34;;;5.57;80.83
59337;BME280;45115;52.002;4.686;2023-03-16T02:50:19;101658.94;;;5.57;81.02
59337;BME280;45115;52.002;4.686;2023-03-16T02:52:45;101652.91;;;5.52;80.94
59337;BME280;45115;52.002;4.686;2023-03-16T02:55:13;101650.19;;;5.52;81.66
59337;BME280;45115;52.002;4.686;2023-03-16T02:57:40;101660.59;;;5.60;81.11
59337;BME280;45115;52.002;4.686;2023-03-16T03:00:11;101648.47;;;5.65;81.53
59337;BME280;45115;52.002;4.686;2023-03-16T03:02:45;101653.91;;;5.65;81.17
59337;BME280;45115;52.002;4.686;2023-03-16T03:05:12;101652.06;;;5.66;81.01
59337;BME280;45115;52.002;4.686;2023-03-16T03:07:41;101651.97;;;5.67;81.63
59337;BME280;45115;52.002;4.686;2023-03-16T03:10:09;101644.41;;;5.72;81.77
59337;BME280;45115;52.002;4.686;2023-03-16T03:12:36;101649.94;;;5.71;81.94
59337;BME280;45115;52.002;4.686;2023-03-16T03:15:07;101653.69;;;5.68;82.20
59337;BME280;45115;52.002;4.686;2023-03-16T03:17:42;101642.75;;;5.70;82.47
59337;BME280;45115;52.002;4.686;2023-03-16T03:20:12;101638.78;;;5.61;82.51
59337;BME280;45115;52.002;4.686;2023-03-16T03:22:42;101638.47;;;5.66;82.30
59337;BME280;45115;52.002;4.686;2023-03-16T03:25:10;101632.34;;;5.62;82.87
59337;BME280;45115;52.002;4.686;2023-03-16T03:27:38;101627.38;;;5.55;83.46
59337;BME280;45115;52.002;4.686;2023-03-16T03:30:09;101627.13;;;5.59;83.23
59337;BME280;45115;52.002;4.686;2023-03-16T03:32:37;101622.63;;;5.58;83.39
59337;BME280;45115;52.002;4.686;2023-03-16T03:35:04;101622.84;;;5.55;82.79
59337;BME280;45115;52.002;4.686;2023-03-16T03:37:33;101624.31;;;5.61;83.66
59337;BME280;45115;52.002;4.686;2023-03-16T03:40:00;101619.66;;;5.63;82.56
59337;BME280;45115;52.002;4.686;2023-03-16T03:42:30;101619.56;;;5.64;82.71
59337;BME280;45115;52.002;4.686;2023-03-16T03:44:57;101626.72;;;5.65;82.65
59337;BME280;45115;52.002;4.686;2023-03-16T03:47:24;101615.75;;;5.67;82.69
59337;BME280;45115;52.002;4.686;2023-03-16T03:49:51;101611.19;;;5.67;82.16
59337;BME280;45115;52.002;4.686;2023-03-16T03:52:18;101610.16;;;5.70;82.58
59337;BME280;45115;52.002;4.686;2023-03-16T03:54:46;101599.84;;;5.61;82.45
59337;BME280;45115;52.002;4.686;2023-03-16T03:57:15;101597.41;;;5.70;82.58
59337;BME280;45115;52.002;4.686;2023-03-16T03:59:42;101594.53;;;5.74;82.29
59337;BME280;45115;52.002;4.686;2023-03-16T04:02:35;101590.16;;;5.71;82.91
59337;BME280;45115;52.002;4.686;2023-03-16T04:05:04;101586.28;;;5.75;82.35
59337;BME280;45115;52.002;4.686;2023-03-16T04:07:32;101589.84;;;5.76;82.19
59337;BME280;45115;52.002;4.686;2023-03-16T04:10:06;101595.97;;;5.79;82.78
59337;BME280;45115;52.002;4.686;2023-03-16T04:12:37;101587.06;;;5.77;81.96
59337;BME280;45115;52.002;4.686;2023-03-16T04:15:06;101599.31;;;5.84;82.20
59337;BME280;45115;52.002;4.686;2023-03-16T04:17:43;101597.47;;;5.85;82.50
59337;BME280;45115;52.002;4.686;2023-03-16T04:20:11;101593.69;;;5.87;81.99
59337;BME280;45115;52.002;4.686;2023-03-16T04:22:42;101592.13;;;5.83;81.89
59337;BME280;45115;52.002;4.686;2023-03-16T04:25:15;101593.97;;;5.83;82.89
59337;BME280;45115;52.002;4.686;2023-03-16T04:27:43;101593.00;;;5.84;82.78
59337;BME280;45115;52.002;4.686;2023-03-16T04:30:12;101583.75;;;5.86;82.21
59337;BME280;45115;52.002;4.686;2023-03-16T04:32:45;101575.44;;;5.89;82.31
59337;BME280;45115;52.002;4.686;2023-03-16T04:35:16;101579.09;;;5.88;82.69
59337;BME280;45115;52.002;4.686;2023-03-16T04:37:47;101569.50;;;5.83;82.96
59337;BME280;45115;52.002;4.686;2023-03-16T04:40:16;101579.59;;;5.81;83.78
59337;BME280;45115;52.002;4.686;2023-03-16T04:42:49;101573.47;;;5.77;84.61
59337;BME280;45115;52.002;4.686;2023-03-16T04:45:19;101571.50;;;5.79;84.36
59337;BME280;45115;52.002;4.686;2023-03-16T04:47:48;101563.75;;;5.73;84.90
59337;BME280;45115;52.002;4.686;2023-03-16T04:50:15;101562.66;;;5.76;84.89
59337;BME280;45115;52.002;4.686;2023-03-16T04:52:46;101555.13;;;5.66;85.21
59337;BME280;45115;52.002;4.686;2023-03-16T04:55:13;101563.25;;;5.66;85.60
59337;BME280;45115;52.002;4.686;2023-03-16T04:57:41;101567.91;;;5.64;85.92
59337;BME280;45115;52.002;4.686;2023-03-16T05:00:10;101558.31;;;5.59;85.61
59337;BME280;45115;52.002;4.686;2023-03-16T05:02:47;101560.53;;;5.52;86.91
59337;BME280;45115;52.002;4.686;2023-03-16T05:05:14;101556.06;;;5.51;86.60
59337;BME280;45115;52.002;4.686;2023-03-16T05:07:42;101558.09;;;5.48;86.98
59337;BME280;45115;52.002;4.686;2023-03-16T05:10:11;101570.53;;;5.52;87.25
59337;BME280;45115;52.002;4.686;2023-03-16T05:12:39;101561.22;;;5.56;87.20
59337;BME280;45115;52.002;4.686;2023-03-16T05:15:09;101551.59;;;5.50;87.43
59337;BME280;45115;52.002;4.686;2023-03-16T05:17:39;101541.19;;;5.43;88.01
59337;BME280;45115;52.002;4.686;2023-03-16T05:20:10;101553.91;;;5.42;87.87
59337;BME280;45115;52.002;4.686;2023-03-16T05:22:41;101547.72;;;5.40;88.18
59337;BME280;45115;52.002;4.686;2023-03-16T05:25:22;101548.31;;;5.45;88.20
59337;BME280;45115;52.002;4.686;2023-03-16T05:27:52;101539.47;;;5.42;88.19
59337;BME280;45115;52.002;4.686;2023-03-16T05:30:35;101530.63;;;5.38;88.46
59337;BME280;45115;52.002;4.686;2023-03-16T05:33:04;101535.97;;;5.40;88.94
59337;BME280;45115;52.002;4.686;2023-03-16T05:35:32;101540.81;;;5.35;89.57
59337;BME280;45115;52.002;4.686;2023-03-16T05:38:03;101536.06;;;5.38;88.84
59337;BME280;45115;52.002;4.686;2023-03-16T05:40:32;101529.66;;;5.39;88.97
59337;BME280;45115;52.002;4.686;2023-03-16T05:43:09;101532.16;;;5.42;89.29
59337;BME280;45115;52.002;4.686;2023-03-16T05:45:43;101520.91;;;5.34;89.08
59337;BME280;45115;52.002;4.686;2023-03-16T05:48:13;101524.53;;;5.35;89.35
59337;BME280;45115;52.002;4.686;2023-03-16T05:50:44;101530.53;;;5.40;89.44
59337;BME280;45115;52.002;4.686;2023-03-16T05:53:13;101531.50;;;5.39;88.92
59337;BME280;45115;52.002;4.686;2023-03-16T05:55:41;101533.84;;;5.45;89.00
59337;BME280;45115;52.002;4.686;2023-03-16T05:58:11;101526.84;;;5.41;89.59
59337;BME280;45115;52.002;4.686;2023-03-16T06:00:40;101525.97;;;5.40;89.70
59337;BME280;45115;52.002;4.686;2023-03-16T06:03:24;101525.00;;;5.41;89.28
59337;BME280;45115;52.002;4.686;2023-03-16T06:05:54;101526.72;;;5.42;89.35
59337;BME280;45115;52.002;4.686;2023-03-16T06:08:47;101508.13;;;5.36;89.15
59337;BME280;45115;52.002;4.686;2023-03-16T06:14:28;101517.91;;;5.39;89.38
59337;BME280;45115;52.002;4.686;2023-03-16T06:16:55;101513.56;;;5.36;89.01
59337;BME280;45115;52.002;4.686;2023-03-16T06:19:24;101518.69;;;5.41;89.12
59337;BME280;45115;52.002;4.686;2023-03-16T06:21:59;101510.84;;;5.36;89.80
59337;BME280;45115;52.002;4.686;2023-03-16T06:24:27;101501.03;;;5.34;89.92
59337;BME280;45115;52.002;4.686;2023-03-16T06:26:53;101515.97;;;5.41;89.40
59337;BME280;45115;52.002;4.686;2023-03-16T06:29:24;101508.59;;;5.43;88.86
59337;BME280;45115;52.002;4.686;2023-03-16T06:31:51;101503.38;;;5.40;89.72
59337;BME280;45115;52.002;4.686;2023-03-16T06:34:20;101501.53;;;5.40;89.03
59337;BME280;45115;52.002;4.686;2023-03-16T06:36:48;101501.13;;;5.46;89.37
59337;BME280;45115;52.002;4.686;2023-03-16T06:39:16;101502.91;;;5.47;89.21
59337;BME280;45115;52.002;4.686;2023-03-16T06:41:46;101503.75;;;5.48;89.09
59337;BME280;45115;52.002;4.686;2023-03-16T06:44:14;101491.63;;;5.53;88.49
59337;BME280;45115;52.002;4.686;2023-03-16T06:46:52;101484.34;;;5.54;88.79
59337;BME280;45115;52.002;4.686;2023-03-16T06:49:18;101478.34;;;5.63;88.59
59337;BME280;45115;52.002;4.686;2023-03-16T06:51:48;101486.38;;;5.64;88.99
59337;BME280;45115;52.002;4.686;2023-03-16T06:54:15;101475.53;;;5.64;88.82
59337;BME280;45115;52.002;4.686;2023-03-16T06:56:44;101463.97;;;5.61;88.16
59337;BME280;45115;52.002;4.686;2023-03-16T06:59:11;101472.28;;;5.72;87.65
59337;BME280;45115;52.002;4.686;2023-03-16T07:01:37;101479.03;;;5.66;88.35
59337;BME280;45115;52.002;4.686;2023-03-16T07:04:04;101483.16;;;5.72;87.94
59337;BME280;45115;52.002;4.686;2023-03-16T07:06:33;101485.50;;;5.78;88.05
59337;BME280;45115;52.002;4.686;2023-03-16T07:09:01;101480.16;;;5.77;87.17
59337;BME280;45115;52.002;4.686;2023-03-16T07:11:30;101467.38;;;5.64;87.86
59337;BME280;45115;52.002;4.686;2023-03-16T07:13:58;101471.03;;;5.78;87.97
59337;BME280;45115;52.002;4.686;2023-03-16T07:16:26;101476.09;;;5.84;87.85
59337;BME280;45115;52.002;4.686;2023-03-16T07:18:55;101473.19;;;5.87;87.53
59337;BME280;45115;52.002;4.686;2023-03-16T07:21:22;101478.34;;;5.91;87.12
59337;BME280;45115;52.002;4.686;2023-03-16T07:23:49;101469.28;;;5.91;86.61
59337;BME280;45115;52.002;4.686;2023-03-16T07:26:25;101462.50;;;5.98;86.35
59337;BME280;45115;52.002;4.686;2023-03-16T07:28:56;101464.28;;;6.11;85.95
59337;BME280;45115;52.002;4.686;2023-03-16T07:31:23;101464.97;;;6.15;85.07
59337;BME280;45115;52.002;4.686;2023-03-16T07:33:50;101464.56;;;6.21;84.74
59337;BME280;45115;52.002;4.686;2023-03-16T07:36:28;101450.84;;;6.22;85.02
59337;BME280;45115;52.002;4.686;2023-03-16T07:39:01;101468.75;;;6.39;84.72
59337;BME280;45115;52.002;4.686;2023-03-16T07:41:30;101479.78;;;6.50;83.97
59337;BME280;45115;52.002;4.686;2023-03-16T07:44:12;101475.94;;;6.66;83.19
59337;BME280;45115;52.002;4.686;2023-03-16T07:46:38;101474.63;;;6.72;82.52
59337;BME280;45115;52.002;4.686;2023-03-16T07:49:05;101472.25;;;6.80;81.93
59337;BME280;45115;52.002;4.686;2023-03-16T07:51:34;101464.88;;;6.82;81.62
59337;BME280;45115;52.002;4.686;2023-03-16T07:54:01;101471.38;;;6.79;81.50
59337;BME280;45115;52.002;4.686;2023-03-16T07:56:32;101471.72;;;6.75;81.16
59337;BME280;45115;52.002;4.686;2023-03-16T07:59:00;101475.84;;;6.80;81.50
59337;BME280;45115;52.002;4.686;2023-03-16T08:01:28;101463.84;;;6.70;81.42
59337;BME280;45115;52.002;4.686;2023-03-16T08:03:55;101473.88;;;6.82;80.56
59337;BME280;45115;52.002;4.686;2023-03-16T08:06:22;101472.03;;;6.83;80.59
59337;BME280;45115;52.002;4.686;2023-03-16T08:08:50;101470.97;;;6.86;79.84
59337;BME280;45115;52.002;4.686;2023-03-16T08:11:28;101477.50;;;6.96;79.75
59337;BME280;45115;52.002;4.686;2023-03-16T08:14:00;101484.28;;;7.03;80.15
59337;BME280;45115;52.002;4.686;2023-03-16T08:16:48;101477.66;;;7.07;78.46
59337;BME280;45115;52.002;4.686;2023-03-16T08:19:16;101469.47;;;7.07;79.06
59337;BME280;45115;52.002;4.686;2023-03-16T08:21:44;101467.97;;;7.15;78.35
59337;BME280;45115;52.002;4.686;2023-03-16T08:24:11;101473.94;;;7.20;77.63
59337;BME280;45115;52.002;4.686;2023-03-16T08:26:38;101473.19;;;7.31;77.50
59337;BME280;45115;52.002;4.686;2023-03-16T08:29:06;101464.66;;;7.35;77.09
59337;BME280;45115;52.002;4.686;2023-03-16T08:31:35;101481.66;;;7.26;77.54
59337;BME280;45115;52.002;4.686;2023-03-16T08:34:10;101464.66;;;7.23;77.06
59337;BME280;45115;52.002;4.686;2023-03-16T08:36:41;101452.47;;;7.28;77.11
59337;BME280;45115;52.002;4.686;2023-03-16T08:39:10;101455.84;;;7.32;77.51
59337;BME280;45115;52.002;4.686;2023-03-16T08:41:44;101451.69;;;7.39;77.05
59337;BME280;45115;52.002;4.686;2023-03-16T08:44:23;101451.94;;;7.36;76.07
59337;BME280;45115;52.002;4.686;2023-03-16T08:46:51;101459.00;;;7.51;76.19
59337;BME280;45115;52.002;4.686;2023-03-16T08:49:18;101447.63;;;7.69;75.96
59337;BME280;45115;52.002;4.686;2023-03-16T08:51:49;101451.59;;;7.89;75.23
59337;BME280;45115;52.002;4.686;2023-03-16T08:54:15;101442.94;;;8.08;74.46
59337;BME280;45115;52.002;4.686;2023-03-16T08:56:42;101441.56;;;8.26;73.74
59337;BME280;45115;52.002;4.686;2023-03-16T08:59:09;101434.97;;;8.41;72.89
59337;BME280;45115;52.002;4.686;2023-03-16T09:01:40;101440.31;;;8.66;71.82
59337;BME280;45115;52.002;4.686;2023-03-16T09:04:07;101432.00;;;8.78;70.60
59337;BME280;45115;52.002;4.686;2023-03-16T09:06:36;101431.88;;;8.69;69.06
59337;BME280;45115;52.002;4.686;2023-03-16T09:09:03;101425.31;;;8.82;70.50
59337;BME280;45115;52.002;4.686;2023-03-16T09:11:30;101430.53;;;8.85;69.52
59337;BME280;45115;52.002;4.686;2023-03-16T09:13:58;101425.50;;;8.92;69.04
59337;BME280;45115;52.002;4.686;2023-03-16T09:16:25;101431.84;;;9.03;67.98
59337;BME280;45115;52.002;4.686;2023-03-16T09:18:53;101430.75;;;9.17;68.86
59337;BME280;45115;52.002;4.686;2023-03-16T09:21:20;101424.53;;;9.26;67.34
59337;BME280;45115;52.002;4.686;2023-03-16T09:23:47;101420.69;;;9.18;67.36
59337;BME280;45115;52.002;4.686;2023-03-16T09:26:15;101420.22;;;9.24;66.81
59337;BME280;45115;52.002;4.686;2023-03-16T09:28:44;101433.84;;;9.13;66.80
59337;BME280;45115;52.002;4.686;2023-03-16T09:31:15;101429.38;;;9.23;67.38
59337;BME280;45115;52.002;4.686;2023-03-16T09:33:42;101429.16;;;9.37;66.70
59337;BME280;45115;52.002;4.686;2023-03-16T09:36:10;101425.56;;;9.47;66.03
59337;BME280;45115;52.002;4.686;2023-03-16T09:38:38;101420.19;;;9.68;65.70
59337;BME280;45115;52.002;4.686;2023-03-16T09:41:07;101411.25;;;9.77;65.44
59337;BME280;45115;52.002;4.686;2023-03-16T09:43:44;101402.78;;;9.91;64.93
59337;BME280;45115;52.002;4.686;2023-03-16T09:46:16;101399.75;;;10.05;62.76
59337;BME280;45115;52.002;4.686;2023-03-16T09:48:48;101403.03;;;10.42;63.02
59337;BME280;45115;52.002;4.686;2023-03-16T09:51:19;101394.59;;;10.65;60.73
59337;BME280;45115;52.002;4.686;2023-03-16T09:53:51;101395.66;;;11.15;61.16
59337;BME280;45115;52.002;4.686;2023-03-16T09:56:28;101400.97;;;11.37;58.43
59337;BME280;45115;52.002;4.686;2023-03-16T09:58:57;101376.59;;;11.13;57.41
59337;BME280;45115;52.002;4.686;2023-03-16T10:01:35;101400.69;;;11.10;58.10
59337;BME280;45115;52.002;4.686;2023-03-16T10:04:13;101404.53;;;11.07;58.32
59337;BME280;45115;52.002;4.686;2023-03-16T10:06:50;101403.66;;;11.27;59.21
59337;BME280;45115;52.002;4.686;2023-03-16T10:09:27;101403.31;;;11.42;58.62
59337;BME280;45115;52.002;4.686;2023-03-16T10:11:58;101391.91;;;11.46;57.84
59337;BME280;45115;52.002;4.686;2023-03-16T10:14:31;101396.13;;;11.50;57.58
59337;BME280;45115;52.002;4.686;2023-03-16T10:17:06;101398.84;;;11.71;57.21
59337;BME280;45115;52.002;4.686;2023-03-16T10:19:41;101400.03;;;11.78;56.23
59337;BME280;45115;52.002;4.686;2023-03-16T10:22:16;101395.34;;;12.08;56.34
59337;BME280;45115;52.002;4.686;2023-03-16T10:24:53;101385.41;;;12.17;55.06
59337;BME280;45115;52.002;4.686;2023-03-16T10:27:29;101392.06;;;12.33;54.85
59337;BME280;45115;52.002;4.686;2023-03-16T10:29:56;101391.03;;;12.25;53.53
59337;BME280;45115;52.002;4.686;2023-03-16T10:32:23;101375.41;;;12.06;52.78
59337;BME280;45115;52.002;4.686;2023-03-16T10:34:58;101380.16;;;12.04;53.60
59337;BME280;45115;52.002;4.686;2023-03-16T10:37:29;101359.91;;;11.96;53.75
59337;BME280;45115;52.002;4.686;2023-03-16T10:39:57;101366.75;;;12.20;53.58
59337;BME280;45115;52.002;4.686;2023-03-16T10:42:25;101371.66;;;12.26;53.71
59337;BME280;45115;52.002;4.686;2023-03-16T10:44:55;101359.84;;;12.26;52.34
59337;BME280;45115;52.002;4.686;2023-03-16T10:47:26;101351.56;;;12.35;51.98
59337;BME280;45115;52.002;4.686;2023-03-16T10:49:56;101352.44;;;12.46;52.25
59337;BME280;45115;52.002;4.686;2023-03-16T10:52:32;101341.59;;;12.54;51.76
59337;BME280;45115;52.002;4.686;2023-03-16T10:55:05;101347.66;;;12.48;52.07
59337;BME280;45115;52.002;4.686;2023-03-16T10:57:34;101340.00;;;12.51;51.30
59337;BME280;45115;52.002;4.686;2023-03-16T11:00:05;101336.81;;;12.46;50.71
59337;BME280;45115;52.002;4.686;2023-03-16T11:02:45;101333.94;;;12.28;50.60
59337;BME280;45115;52.002;4.686;2023-03-16T11:05:18;101330.19;;;12.39;50.78
59337;BME280;45115;52.002;4.686;2023-03-16T11:07:55;101316.72;;;12.46;50.99
59337;BME280;45115;52.002;4.686;2023-03-16T11:10:28;101327.00;;;12.53;50.94
59337;BME280;45115;52.002;4.686;2023-03-16T11:13:00;101333.50;;;12.43;51.32
59337;BME280;45115;52.002;4.686;2023-03-16T11:15:36;101331.19;;;12.48;51.60
59337;BME280;45115;52.002;4.686;2023-03-16T11:18:45;101331.63;;;12.43;50.99
59337;BME280;45115;52.002;4.686;2023-03-16T11:21:16;101330.19;;;12.29;50.81
59337;BME280;45115;52.002;4.686;2023-03-16T11:23:48;101320.50;;;12.25;51.31
59337;BME280;45115;52.002;4.686;2023-03-16T11:26:20;101321.22;;;12.27;50.11
59337;BME280;45115;52.002;4.686;2023-03-16T11:28:53;101314.72;;;12.28;50.12
59337;BME280;45115;52.002;4.686;2023-03-16T11:31:36;101322.09;;;12.28;49.86
59337;BME280;45115;52.002;4.686;2023-03-16T11:34:08;101306.03;;;12.43;49.52
59337;BME280;45115;52.002;4.686;2023-03-16T11:36:43;101318.03;;;12.61;48.71
59337;BME280;45115;52.002;4.686;2023-03-16T11:39:20;101310.88;;;12.77;50.14
59337;BME280;45115;52.002;4.686;2023-03-16T11:42:08;101304.03;;;13.00;49.60
59337;BME280;45115;52.002;4.686;2023-03-16T11:44:43;101314.56;;;13.24;50.25
59337;BME280;45115;52.002;4.686;2023-03-16T11:47:32;101303.22;;;13.36;47.23
59337;BME280;45115;52.002;4.686;2023-03-16T11:50:13;101304.91;;;13.10;47.66
59337;BME280;45115;52.002;4.686;2023-03-16T11:52:48;101298.06;;;13.24;48.08
59337;BME280;45115;52.002;4.686;2023-03-16T11:55:28;101295.44;;;13.59;49.11
59337;BME280;45115;52.002;4.686;2023-03-16T11:58:09;101299.34;;;13.84;46.81
59337;BME280;45115;52.002;4.686;2023-03-16T12:00:49;101289.28;;;13.92;46.63
59337;BME280;45115;52.002;4.686;2023-03-16T12:03:46;101300.94;;;14.21;46.80
59337;BME280;45115;52.002;4.686;2023-03-16T12:06:29;101290.41;;;14.17;46.88
59337;BME280;45115;52.002;4.686;2023-03-16T12:12:04;101277.47;;;14.00;44.85
59337;BME280;45115;52.002;4.686;2023-03-16T12:14:40;101269.38;;;13.98;45.65
59337;BME280;45115;52.002;4.686;2023-03-16T12:17:12;101274.41;;;14.03;45.47
59337;BME280;45115;52.002;4.686;2023-03-16T12:19:44;101273.94;;;14.25;45.46
59337;BME280;45115;52.002;4.686;2023-03-16T12:22:13;101275.06;;;14.32;46.28
59337;BME280;45115;52.002;4.686;2023-03-16T12:24:44;101268.59;;;14.23;45.03
59337;BME280;45115;52.002;4.686;2023-03-16T12:27:21;101259.84;;;14.10;43.70
59337;BME280;45115;52.002;4.686;2023-03-16T12:29:55;101259.38;;;14.15;45.13
59337;BME280;45115;52.002;4.686;2023-03-16T12:32:33;101249.00;;;14.26;45.64
59337;BME280;45115;52.002;4.686;2023-03-16T12:35:07;101234.41;;;14.51;44.06
59337;BME280;45115;52.002;4.686;2023-03-16T12:37:44;101229.94;;;14.76;44.63
59337;BME280;45115;52.002;4.686;2023-03-16T12:40:26;101231.84;;;14.32;43.87
59337;BME280;45115;52.002;4.686;2023-03-16T12:43:08;101227.81;;;14.44;44.77
59337;BME280;45115;52.002;4.686;2023-03-16T12:45:39;101220.94;;;14.48;44.57
59337;BME280;45115;52.002;4.686;2023-03-16T12:48:15;101219.03;;;14.49;43.88
59337;BME280;45115;52.002;4.686;2023-03-16T12:50:50;101205.91;;;14.69;45.13
59337;BME280;45115;52.002;4.686;2023-03-16T12:53:27;101197.91;;;14.57;43.68
59337;BME280;45115;52.002;4.686;2023-03-16T12:55:55;101201.75;;;14.39;43.00
59337;BME280;45115;52.002;4.686;2023-03-16T12:58:24;101218.03;;;14.50;42.61
59337;BME280;45115;52.002;4.686;2023-03-16T13:00:55;101214.53;;;14.66;43.25
59337;BME280;45115;52.002;4.686;2023-03-16T13:03:24;101213.06;;;14.53;42.32
59337;BME280;45115;52.002;4.686;2023-03-16T13:05:53;101216.81;;;14.52;41.17
59337;BME280;45115;52.002;4.686;2023-03-16T13:08:21;101211.44;;;14.43;40.49
59337;BME280;45115;52.002;4.686;2023-03-16T13:11:02;101196.03;;;14.58;40.66
59337;BME280;45115;52.002;4.686;2023-03-16T13:13:31;101195.38;;;14.64;41.90
59337;BME280;45115;52.002;4.686;2023-03-16T13:16:04;101186.22;;;14.89;40.63
59337;BME280;45115;52.002;4.686;2023-03-16T13:18:35;101183.63;;;14.88;40.29
59337;BME280;45115;52.002;4.686;2023-03-16T13:21:15;101179.19;;;14.95;40.86
59337;BME280;45115;52.002;4.686;2023-03-16T13:23:56;101178.25;;;14.78;40.39